createdAt,value
2018-11-03T00:00:05.701Z,4.97
2018-11-03T00:02:34.869Z,5.40
2018-11-03T00:05:03.773Z,5.30
2018-11-03T00:07:32.356Z,5.93
2018-11-03T00:10:01.658Z,5.40
2018-11-03T00:12:30.261Z,5.20
2018-11-03T00:14:58.941Z,5.20
2018-11-03T00:17:28.244Z,5.27
2018-11-03T00:19:57.331Z,4.93
2018-11-03T00:22:26.040Z,5.47
2018-11-03T00:24:55.140Z,5.23
2018-11-03T00:27:24.409Z,5.23
2018-11-03T00:29:53.414Z,5.23
2018-11-03T00:32:23.127Z,4.90
2018-11-03T00:34:52.554Z,5.03
2018-11-03T00:37:21.705Z,5.40
2018-11-03T00:39:51.262Z,4.80
2018-11-03T00:42:20.017Z,4.70
2018-11-03T00:44:48.981Z,4.90
2018-11-03T00:47:17.908Z,4.27
2018-11-03T00:49:46.947Z,4.93
2018-11-03T00:52:16.024Z,5.00
2018-11-03T00:54:45.205Z,4.93
2018-11-03T00:57:14.789Z,4.23
2018-11-03T00:59:43.516Z,4.83
2018-11-03T01:02:12.565Z,4.93
2018-11-03T01:04:41.656Z,4.40
2018-11-03T01:07:11.089Z,4.10
2018-11-03T01:09:40.172Z,3.93
2018-11-03T01:12:08.632Z,3.90
2018-11-03T01:14:37.264Z,4.10
2018-11-03T01:17:06.124Z,4.17
2018-11-03T01:19:35.170Z,3.93
2018-11-03T01:22:04.537Z,4.03
2018-11-03T01:24:33.414Z,3.80
2018-11-03T01:27:02.461Z,4.00
2018-11-03T01:29:31.471Z,3.63
2018-11-03T01:32:01.013Z,3.90
2018-11-03T01:34:30.316Z,3.70
2018-11-03T01:36:59.417Z,3.73
2018-11-03T01:39:28.380Z,3.53
2018-11-03T01:41:57.048Z,3.30
2018-11-03T01:44:26.010Z,4.03
2018-11-03T01:46:54.811Z,3.57
2018-11-03T01:49:23.636Z,3.20
2018-11-03T01:51:52.129Z,3.50
2018-11-03T01:54:21.062Z,3.50
2018-11-03T01:56:50.079Z,3.07
2018-11-03T01:59:19.473Z,3.40
2018-11-03T02:01:48.366Z,3.30
2018-11-03T02:04:18.081Z,3.33
2018-11-03T02:06:47.168Z,3.53
2018-11-03T02:09:17.137Z,3.27
2018-11-03T02:11:46.449Z,2.83
2018-11-03T02:14:15.817Z,3.00
2018-11-03T02:16:45.837Z,2.87
2018-11-03T02:19:14.745Z,2.80
2018-11-03T02:21:43.566Z,2.70
2018-11-03T02:24:16.017Z,2.97
2018-11-03T02:26:45.332Z,2.87
2018-11-03T02:29:14.140Z,3.00
2018-11-03T02:31:43.245Z,2.53
2018-11-03T02:34:12.416Z,2.80
2018-11-03T02:36:41.411Z,2.80
2018-11-03T02:39:11.307Z,2.40
2018-11-03T02:41:40.305Z,2.70
2018-11-03T02:44:10.173Z,2.30
2018-11-03T02:46:39.733Z,2.13
2018-11-03T02:49:08.936Z,2.20
2018-11-03T02:51:37.997Z,1.90
2018-11-03T02:54:07.236Z,1.70
2018-11-03T02:56:36.665Z,1.55
2018-11-03T02:59:05.595Z,1.50
2018-11-03T03:01:34.701Z,1.30
2018-11-03T03:04:04.329Z,1.47
2018-11-03T03:06:33.763Z,1.23
2018-11-03T03:09:02.778Z,1.40
2018-11-03T03:11:32.284Z,1.40
2018-11-03T03:14:01.257Z,0.93
2018-11-03T03:16:30.344Z,1.10
2018-11-03T03:18:59.097Z,1.37
2018-11-03T03:21:27.796Z,0.90
2018-11-03T03:23:56.900Z,0.87
2018-11-03T03:26:26.066Z,0.83
2018-11-03T03:28:55.245Z,0.83
2018-11-03T03:31:24.779Z,0.83
2018-11-03T03:33:53.605Z,1.00
2018-11-03T03:36:22.716Z,0.97
2018-11-03T03:38:52.065Z,1.23
2018-11-03T03:41:20.968Z,0.70
2018-11-03T03:43:49.799Z,0.70
2018-11-03T03:46:18.659Z,1.10
2018-11-03T03:48:48.274Z,1.10
2018-11-03T03:51:17.293Z,1.00
2018-11-03T03:53:45.997Z,1.13
2018-11-03T03:56:14.655Z,0.70
2018-11-03T03:58:43.872Z,1.07
2018-11-03T04:01:12.900Z,0.70
2018-11-03T04:03:41.996Z,0.87
2018-11-03T04:06:10.847Z,0.90
2018-11-03T04:08:39.848Z,0.93
2018-11-03T04:11:08.832Z,0.80
2018-11-03T04:13:38.230Z,0.70
2018-11-03T04:16:06.988Z,1.00
2018-11-03T04:18:36.438Z,0.80
2018-11-03T04:21:05.528Z,0.70
2018-11-03T04:23:34.673Z,1.10
2018-11-03T04:26:03.725Z,1.10
2018-11-03T04:28:32.435Z,0.90
2018-11-03T04:31:02.073Z,1.00
2018-11-03T04:33:30.738Z,1.02
2018-11-03T04:36:00.037Z,1.00
2018-11-03T04:38:29.329Z,0.83
2018-11-03T04:40:58.063Z,0.80
2018-11-03T04:43:27.346Z,0.90
2018-11-03T04:45:56.445Z,0.97
2018-11-03T04:48:25.441Z,0.83
2018-11-03T04:50:54.741Z,1.07
2018-11-03T04:53:24.187Z,0.90
2018-11-03T04:55:53.355Z,0.70
2018-11-03T04:58:22.797Z,0.90
2018-11-03T05:00:52.420Z,0.83
2018-11-03T05:03:21.353Z,0.80
2018-11-03T05:05:51.137Z,0.93
2018-11-03T05:08:20.083Z,0.83
2018-11-03T05:10:49.469Z,1.10
2018-11-03T05:13:18.242Z,0.70
2018-11-03T05:15:47.653Z,0.90
2018-11-03T05:18:16.976Z,0.80
2018-11-03T05:20:45.976Z,0.70
2018-11-03T05:23:15.323Z,1.00
2018-11-03T05:25:44.950Z,1.33
2018-11-03T05:28:13.387Z,0.70
2018-11-03T05:30:42.144Z,0.67
2018-11-03T05:33:10.796Z,1.10
2018-11-03T05:35:39.801Z,0.80
2018-11-03T05:38:08.571Z,0.83
2018-11-03T05:40:37.180Z,0.70
2018-11-03T05:43:06.133Z,0.70
2018-11-03T05:45:35.128Z,0.73
2018-11-03T05:48:03.461Z,1.00
2018-11-03T05:50:32.420Z,0.70
2018-11-03T05:53:01.302Z,0.80
2018-11-03T05:55:30.013Z,0.90
2018-11-03T05:57:58.932Z,0.70
2018-11-03T06:00:28.586Z,0.60
2018-11-03T06:02:59.366Z,0.77
2018-11-03T06:05:28.421Z,0.83
2018-11-03T06:07:57.529Z,0.70
2018-11-03T06:10:26.742Z,0.70
2018-11-03T06:12:55.754Z,0.67
2018-11-03T06:15:25.937Z,0.87
2018-11-03T06:17:54.806Z,0.73
2018-11-03T06:20:23.858Z,0.70
2018-11-03T06:22:52.614Z,0.60
2018-11-03T06:25:21.651Z,0.83
2018-11-03T06:27:50.726Z,0.67
2018-11-03T06:30:20.904Z,0.80
2018-11-03T06:32:49.595Z,0.70
2018-11-03T06:35:18.499Z,0.70
2018-11-03T06:37:47.348Z,0.50
2018-11-03T06:40:16.548Z,0.63
2018-11-03T06:42:47.189Z,0.70
2018-11-03T06:45:16.373Z,0.80
2018-11-03T06:47:45.023Z,0.70
2018-11-03T06:50:14.229Z,0.70
2018-11-03T06:52:43.711Z,0.63
2018-11-03T06:55:13.057Z,0.93
2018-11-03T06:57:42.929Z,0.70
2018-11-03T07:00:12.525Z,0.70
2018-11-03T07:02:41.518Z,0.73
2018-11-03T07:05:10.999Z,0.80
2018-11-03T07:07:40.228Z,0.70
2018-11-03T07:10:10.233Z,0.70
2018-11-03T07:12:39.163Z,0.60
2018-11-03T07:15:08.269Z,0.70
2018-11-03T07:17:37.476Z,0.70
2018-11-03T07:20:08.704Z,0.80
2018-11-03T07:22:37.619Z,0.87
2018-11-03T07:25:06.569Z,0.73
2018-11-03T07:27:35.607Z,0.60
2018-11-03T07:30:04.928Z,0.60
2018-11-03T07:32:34.277Z,0.70
2018-11-03T07:35:03.540Z,0.77
2018-11-03T07:37:32.212Z,0.70
2018-11-03T07:40:01.311Z,0.80
2018-11-03T07:42:30.025Z,0.70
2018-11-03T07:44:58.673Z,0.80
2018-11-03T07:47:28.440Z,0.70
2018-11-03T07:49:57.301Z,0.70
2018-11-03T07:52:26.025Z,0.67
2018-11-03T07:54:55.289Z,1.07
2018-11-03T07:57:24.193Z,0.80
2018-11-03T07:59:53.086Z,0.83
2018-11-03T08:02:22.089Z,0.80
2018-11-03T08:04:51.577Z,0.70
2018-11-03T08:07:21.029Z,1.30
2018-11-03T08:09:50.114Z,1.20
2018-11-03T08:12:19.497Z,1.30
2018-11-03T08:14:48.820Z,1.00
2018-11-03T08:17:17.604Z,1.20
2018-11-03T08:19:46.381Z,1.00
2018-11-03T08:22:15.076Z,0.80
2018-11-03T08:24:44.133Z,0.80
2018-11-03T08:27:13.509Z,1.40
2018-11-03T08:29:42.628Z,0.80
2018-11-03T08:32:11.612Z,0.80
2018-11-03T08:34:40.438Z,0.90
2018-11-03T08:37:09.152Z,0.90
2018-11-03T08:39:39.797Z,0.90
2018-11-03T08:42:09.605Z,0.83
2018-11-03T08:44:38.041Z,0.83
2018-11-03T08:47:06.699Z,1.03
2018-11-03T08:49:36.061Z,0.90
2018-11-03T08:52:04.825Z,0.83
2018-11-03T08:54:33.932Z,0.70
2018-11-03T08:57:03.693Z,0.87
2018-11-03T08:59:32.721Z,0.80
2018-11-03T09:02:01.385Z,0.80
2018-11-03T09:04:30.340Z,0.70
2018-11-03T09:06:59.121Z,0.70
2018-11-03T09:09:28.074Z,0.73
2018-11-03T09:11:57.276Z,0.70
2018-11-03T09:14:26.400Z,0.80
2018-11-03T09:16:55.545Z,0.90
2018-11-03T09:19:24.206Z,0.70
2018-11-03T09:21:53.542Z,0.60
2018-11-03T09:24:22.816Z,0.60
2018-11-03T09:26:51.802Z,0.70
2018-11-03T09:29:20.588Z,1.00
2018-11-03T09:31:50.160Z,0.80
2018-11-03T09:34:19.440Z,0.50
2018-11-03T09:36:48.691Z,0.77
2018-11-03T09:39:18.173Z,0.63
2018-11-03T09:41:47.132Z,0.60
2018-11-03T09:44:15.872Z,0.70
2018-11-03T09:46:45.004Z,0.50
2018-11-03T09:49:14.481Z,0.70
2018-11-03T09:51:43.210Z,0.63
2018-11-03T09:54:12.255Z,0.73
2018-11-03T09:56:41.257Z,0.80
2018-11-03T09:59:10.680Z,0.80
2018-11-03T10:01:40.044Z,0.70
2018-11-03T10:04:09.029Z,0.70
2018-11-03T10:06:38.021Z,0.70
2018-11-03T10:09:08.253Z,0.80
2018-11-03T10:11:37.489Z,0.70
2018-11-03T10:14:06.422Z,0.70
2018-11-03T10:16:35.600Z,0.77
2018-11-03T10:19:04.705Z,0.80
2018-11-03T10:21:33.813Z,1.20
2018-11-03T10:24:03.005Z,0.70
2018-11-03T10:26:31.446Z,1.00
2018-11-03T10:29:00.611Z,0.93
2018-11-03T10:31:29.716Z,0.97
2018-11-03T10:33:59.204Z,0.80
2018-11-03T10:36:28.456Z,0.87
2018-11-03T10:38:58.421Z,0.83
2018-11-03T10:41:28.421Z,0.70
2018-11-03T10:43:56.863Z,0.87
2018-11-03T10:46:26.052Z,0.97
2018-11-03T10:48:55.041Z,0.80
2018-11-03T10:51:24.744Z,0.70
2018-11-03T10:53:54.077Z,1.03
2018-11-03T10:56:23.122Z,0.97
2018-11-03T10:58:52.073Z,0.70
2018-11-03T11:01:26.177Z,0.90
2018-11-03T11:04:00.372Z,0.93
2018-11-03T11:06:34.796Z,0.97
2018-11-03T11:09:09.025Z,0.80
2018-11-03T11:11:43.333Z,0.80
2018-11-03T11:14:12.247Z,0.90
2018-11-03T11:16:40.874Z,0.80
2018-11-03T11:19:09.729Z,0.70
2018-11-03T11:21:38.749Z,0.80
2018-11-03T11:24:07.919Z,1.00
2018-11-03T11:26:37.320Z,0.90
2018-11-03T11:29:07.137Z,0.80
2018-11-03T11:31:37.240Z,0.90
2018-11-03T11:34:06.661Z,0.80
2018-11-03T11:36:35.356Z,0.80
2018-11-03T11:39:04.897Z,0.80
2018-11-03T11:41:34.097Z,0.80
2018-11-03T11:44:03.128Z,1.17
2018-11-03T11:46:32.565Z,0.87
2018-11-03T11:49:02.098Z,0.80
2018-11-03T11:51:31.076Z,0.80
2018-11-03T11:53:59.785Z,0.70
2018-11-03T11:56:29.070Z,0.87
2018-11-03T11:58:57.965Z,1.00
2018-11-03T12:01:26.785Z,0.70
2018-11-03T12:03:55.469Z,0.90
2018-11-03T12:06:24.192Z,0.83
2018-11-03T12:08:53.401Z,0.70
2018-11-03T12:11:22.460Z,1.07
2018-11-03T12:13:51.212Z,0.80
2018-11-03T12:16:20.683Z,0.80
2018-11-03T12:18:49.514Z,0.90
2018-11-03T12:21:18.893Z,1.00
2018-11-03T12:23:47.531Z,0.80
2018-11-03T12:26:16.528Z,0.90
2018-11-03T12:28:45.601Z,0.87
2018-11-03T12:31:14.543Z,0.70
2018-11-03T12:33:43.837Z,0.80
2018-11-03T12:36:12.651Z,0.53
2018-11-03T12:38:41.742Z,0.77
2018-11-03T12:41:11.051Z,0.90
2018-11-03T12:43:40.433Z,0.83
2018-11-03T12:46:09.608Z,0.77
2018-11-03T12:48:38.550Z,0.70
2018-11-03T12:51:07.808Z,0.80
2018-11-03T12:53:37.626Z,1.27
2018-11-03T12:56:06.714Z,0.80
2018-11-03T12:58:36.173Z,0.80
2018-11-03T13:01:04.915Z,0.70
2018-11-03T13:03:33.873Z,1.10
2018-11-03T13:06:02.842Z,0.77
2018-11-03T13:08:32.115Z,0.87
2018-11-03T13:11:00.772Z,1.07
2018-11-03T13:13:29.968Z,1.10
2018-11-03T13:15:59.241Z,0.87
2018-11-03T13:18:28.648Z,0.80
2018-11-03T13:20:57.677Z,0.90
2018-11-03T13:23:26.866Z,0.90
2018-11-03T13:25:57.269Z,1.10
2018-11-03T13:28:26.226Z,0.80
2018-11-03T13:30:55.249Z,0.70
2018-11-03T13:33:24.391Z,1.10
2018-11-03T13:35:53.606Z,0.90
2018-11-03T13:38:22.032Z,0.90
2018-11-03T13:40:50.853Z,0.57
2018-11-03T13:43:20.096Z,1.10
2018-11-03T13:45:49.115Z,0.70
2018-11-03T13:48:18.485Z,0.70
2018-11-03T13:50:47.628Z,0.70
2018-11-03T13:53:16.861Z,0.77
2018-11-03T13:55:45.870Z,0.70
2018-11-03T13:58:15.169Z,0.90
2018-11-03T14:00:44.268Z,0.80
2018-11-03T14:03:13.705Z,0.60
2018-11-03T14:05:42.485Z,0.80
2018-11-03T14:08:12.446Z,0.77
2018-11-03T14:10:41.049Z,0.80
2018-11-03T14:13:09.502Z,0.70
2018-11-03T14:15:38.939Z,0.70
2018-11-03T14:18:08.037Z,0.70
2018-11-03T14:20:37.353Z,0.83
2018-11-03T14:23:06.182Z,0.90
2018-11-03T14:25:35.405Z,0.70
2018-11-03T14:28:03.780Z,0.50
2018-11-03T14:30:32.373Z,0.70
2018-11-03T14:33:00.976Z,0.57
2018-11-03T14:35:29.889Z,0.87
2018-11-03T14:37:58.568Z,0.80
2018-11-03T14:40:27.325Z,0.63
2018-11-03T14:42:56.135Z,0.73
2018-11-03T14:45:25.257Z,0.90
2018-11-03T14:47:55.069Z,0.73
2018-11-03T14:50:27.980Z,0.93
2018-11-03T14:52:57.104Z,1.10
2018-11-03T14:55:26.100Z,1.30
2018-11-03T14:57:55.013Z,0.90
2018-11-03T15:00:24.116Z,0.87
2018-11-03T15:02:52.850Z,0.97
2018-11-03T15:05:21.372Z,1.00
2018-11-03T15:07:50.317Z,0.93
2018-11-03T15:10:19.284Z,0.77
2018-11-03T15:12:48.485Z,0.80
2018-11-03T15:15:17.456Z,0.90
2018-11-03T15:17:46.406Z,0.90
2018-11-03T15:20:15.824Z,1.00
2018-11-03T15:22:44.865Z,0.80
2018-11-03T15:25:13.442Z,0.80
2018-11-03T15:27:42.897Z,0.77
2018-11-03T15:30:12.825Z,1.10
2018-11-03T15:32:43.449Z,0.90
2018-11-03T15:35:13.436Z,0.97
2018-11-03T15:37:42.749Z,0.80
2018-11-03T15:40:12.611Z,0.80
2018-11-03T15:42:41.808Z,0.80
2018-11-03T15:45:16.798Z,0.90
2018-11-03T15:47:46.489Z,0.87
2018-11-03T15:50:16.041Z,1.23
2018-11-03T15:52:45.136Z,1.00
2018-11-03T15:55:14.733Z,0.97
2018-11-03T15:57:43.642Z,0.90
2018-11-03T16:00:15.224Z,0.90
2018-11-03T16:02:44.402Z,0.90
2018-11-03T16:05:14.428Z,1.00
2018-11-03T16:07:44.390Z,0.87
2018-11-03T16:10:13.235Z,1.00
2018-11-03T16:12:42.027Z,0.80
2018-11-03T16:15:11.811Z,1.20
2018-11-03T16:17:41.667Z,1.10
2018-11-03T16:20:12.223Z,0.87
2018-11-03T16:22:41.587Z,0.93
2018-11-03T16:25:10.884Z,0.97
2018-11-03T16:27:40.668Z,0.83
2018-11-03T16:30:10.558Z,0.97
2018-11-03T16:32:40.662Z,1.00
2018-11-03T16:35:09.213Z,1.00
2018-11-03T16:37:38.196Z,0.90
2018-11-03T16:40:08.448Z,1.10
2018-11-03T16:42:37.486Z,1.13
2018-11-03T16:45:07.785Z,1.00
2018-11-03T16:47:37.273Z,1.00
2018-11-03T16:50:07.616Z,0.93
2018-11-03T16:52:36.729Z,1.20
2018-11-03T16:55:05.809Z,1.00
2018-11-03T16:57:34.455Z,1.43
2018-11-03T17:00:03.115Z,1.70
2018-11-03T17:02:32.436Z,1.10
2018-11-03T17:05:01.311Z,1.50
2018-11-03T17:07:30.340Z,1.27
2018-11-03T17:09:59.493Z,1.20
2018-11-03T17:12:28.805Z,1.47
2018-11-03T17:14:57.800Z,1.83
2018-11-03T17:17:26.438Z,1.40
2018-11-03T17:19:55.428Z,1.43
2018-11-03T17:22:24.787Z,1.20
2018-11-03T17:24:54.467Z,1.20
2018-11-03T17:27:23.495Z,1.40
2018-11-03T17:29:52.245Z,2.57
2018-11-03T17:32:21.697Z,1.80
2018-11-03T17:34:51.204Z,2.10
2018-11-03T17:37:20.068Z,2.07
2018-11-03T17:39:49.176Z,1.80
2018-11-03T17:42:18.254Z,1.73
2018-11-03T17:44:47.249Z,1.73
2018-11-03T17:47:16.482Z,1.47
2018-11-03T17:49:45.234Z,1.70
2018-11-03T17:52:14.578Z,1.40
2018-11-03T17:54:43.881Z,2.00
2018-11-03T17:57:13.336Z,1.53
2018-11-03T17:59:42.646Z,1.47
2018-11-03T18:02:11.916Z,1.47
2018-11-03T18:04:40.933Z,1.63
2018-11-03T18:07:09.630Z,1.97
2018-11-03T18:09:38.789Z,1.50
2018-11-03T18:12:07.215Z,1.60
2018-11-03T18:14:36.515Z,1.60
2018-11-03T18:17:05.710Z,1.97
2018-11-03T18:19:34.781Z,1.70
2018-11-03T18:22:03.896Z,1.37
2018-11-03T18:24:32.713Z,1.50
2018-11-03T18:27:01.402Z,2.17
2018-11-03T18:29:30.582Z,2.20
2018-11-03T18:31:58.992Z,1.50
2018-11-03T18:34:27.754Z,1.80
2018-11-03T18:36:57.004Z,1.53
2018-11-03T18:39:25.976Z,2.10
2018-11-03T18:41:55.385Z,1.83
2018-11-03T18:44:25.213Z,1.90
2018-11-03T18:46:54.588Z,1.80
2018-11-03T18:49:23.566Z,1.80
2018-11-03T18:51:52.932Z,1.80
2018-11-03T18:54:22.042Z,1.83
2018-11-03T18:57:02.415Z,2.40
2018-11-03T18:59:32.683Z,1.80
2018-11-03T19:02:01.521Z,2.00
2018-11-03T19:04:30.530Z,2.10
2018-11-03T19:07:00.357Z,2.37
2018-11-03T19:09:29.619Z,1.63
2018-11-03T19:11:58.914Z,2.30
2018-11-03T19:14:27.911Z,2.73
2018-11-03T19:16:56.856Z,2.20
2018-11-03T19:19:26.016Z,2.10
2018-11-03T19:21:55.276Z,2.95
2018-11-03T19:24:24.289Z,3.40
2018-11-03T19:26:53.468Z,2.60
2018-11-03T19:29:22.537Z,3.37
2018-11-03T19:31:51.249Z,2.93
2018-11-03T19:34:20.225Z,2.50
2018-11-03T19:36:48.884Z,2.30
2018-11-03T19:39:17.761Z,2.30
2018-11-03T19:41:47.219Z,3.87
2018-11-03T19:44:16.465Z,2.30
2018-11-03T19:46:45.756Z,2.22
2018-11-03T19:49:14.877Z,3.70
2018-11-03T19:51:43.870Z,2.23
2018-11-03T19:54:12.516Z,1.87
2018-11-03T19:56:41.700Z,2.53
2018-11-03T19:59:11.075Z,2.93
2018-11-03T20:01:40.907Z,3.50
2018-11-03T20:04:10.550Z,2.35
2018-11-03T20:06:39.822Z,3.63
2018-11-03T20:09:08.513Z,4.07
2018-11-03T20:11:37.612Z,3.73
2018-11-03T20:14:07.790Z,2.70
2018-11-03T20:16:36.732Z,2.40
2018-11-03T20:19:05.330Z,3.13
2018-11-03T20:21:35.121Z,3.00
2018-11-03T20:24:04.749Z,3.37
2018-11-03T20:26:33.733Z,3.50
2018-11-03T20:29:02.991Z,2.80
2018-11-03T20:31:31.843Z,3.30
2018-11-03T20:34:01.165Z,3.53
2018-11-03T20:36:30.061Z,3.00
2018-11-03T20:38:58.721Z,3.10
2018-11-03T20:41:28.053Z,2.70
2018-11-03T20:43:57.281Z,2.37
2018-11-03T20:46:26.640Z,2.73
2018-11-03T20:48:57.174Z,2.97
2018-11-03T20:51:25.884Z,2.80
2018-11-03T20:53:54.721Z,2.83
2018-11-03T20:56:24.156Z,2.92
2018-11-03T20:58:53.170Z,2.70
2018-11-03T21:01:21.965Z,2.10
2018-11-03T21:03:51.292Z,2.50
2018-11-03T21:06:20.366Z,2.80
2018-11-03T21:08:49.364Z,2.30
2018-11-03T21:11:18.731Z,2.20
2018-11-03T21:13:47.860Z,2.00
2018-11-03T21:16:16.616Z,2.60
2018-11-03T21:18:45.527Z,2.30
2018-11-03T21:21:14.351Z,2.40
2018-11-03T21:23:43.567Z,2.27
2018-11-03T21:26:12.858Z,1.90
2018-11-03T21:28:42.106Z,1.70
2018-11-03T21:31:11.805Z,1.57
2018-11-03T21:33:41.006Z,1.27
2018-11-03T21:36:09.965Z,1.50
2018-11-03T21:38:38.709Z,2.13
2018-11-03T21:41:07.255Z,1.60
2018-11-03T21:43:36.024Z,1.50
2018-11-03T21:46:05.168Z,1.60
2018-11-03T21:48:34.161Z,1.23
2018-11-03T21:51:03.633Z,1.73
2018-11-03T21:53:32.577Z,1.30
2018-11-03T21:56:01.848Z,1.80
2018-11-03T21:58:30.963Z,1.80
2018-11-03T22:00:59.930Z,1.30
2018-11-03T22:03:28.536Z,1.47
2018-11-03T22:05:57.516Z,1.33
2018-11-03T22:08:25.933Z,1.50
2018-11-03T22:10:54.637Z,1.23
2018-11-03T22:13:23.713Z,1.47
2018-11-03T22:15:52.739Z,1.30
2018-11-03T22:18:21.805Z,1.93
2018-11-03T22:20:51.066Z,1.40
2018-11-03T22:23:19.992Z,1.37
2018-11-03T22:25:48.695Z,1.43
2018-11-03T22:28:17.701Z,1.23
2018-11-03T22:30:46.685Z,1.30
2018-11-03T22:33:15.905Z,1.20
2018-11-03T22:35:44.879Z,1.40
2018-11-03T22:38:13.845Z,1.63
2018-11-03T22:40:43.329Z,1.33
2018-11-03T22:43:12.408Z,1.33
2018-11-03T22:45:41.595Z,1.20
2018-11-03T22:48:10.341Z,1.30
2018-11-03T22:50:39.844Z,1.30
2018-11-03T22:53:08.880Z,1.97
2018-11-03T22:55:38.224Z,1.23
2018-11-03T22:58:07.112Z,1.40
2018-11-03T23:00:40.013Z,1.50
2018-11-03T23:03:09.016Z,1.10
2018-11-03T23:05:38.725Z,1.30
2018-11-03T23:08:07.556Z,1.40
2018-11-03T23:10:36.569Z,1.43
2018-11-03T23:13:06.040Z,1.10
2018-11-03T23:15:34.770Z,1.63
2018-11-03T23:18:04.274Z,1.20
2018-11-03T23:20:33.655Z,1.40
2018-11-03T23:23:03.036Z,1.40
2018-11-03T23:25:32.203Z,1.63
2018-11-03T23:28:01.593Z,2.07
2018-11-03T23:30:30.009Z,1.27
2018-11-03T23:32:58.689Z,1.47
2018-11-03T23:35:27.788Z,1.57
2018-11-03T23:37:57.030Z,1.70
2018-11-03T23:40:25.830Z,1.13
2018-11-03T23:42:54.625Z,1.70
2018-11-03T23:45:23.570Z,1.53
2018-11-03T23:47:52.776Z,1.50
2018-11-03T23:50:22.235Z,1.60
2018-11-03T23:52:51.264Z,1.67
2018-11-03T23:55:20.542Z,1.50
2018-11-03T23:57:49.746Z,1.63
